Time;durP1;ratioP1;P1;durP2;ratioP2;P2;SDS_P1;SDS_P2;PMS_P1;PMS_P2;Temp;Humidity;BMP_temperature;BMP_pressure;BME280_temperature;BME280_humidity;BME280_pressure;Samples;Min_cycle;Max_cycle;Signal;HPM_P1;HPM_P2
2022/08/07 00:00:53;;;;;;;6.60;4.45;;;12.10;99.90;;;;;;4842875;29;20057;-67
2022/08/07 00:03:19;;;;;;;5.22;4.72;;;12.00;99.90;;;;;;4843048;29;20061;-67
2022/08/07 00:05:44;;;;;;;6.97;5.13;;;11.90;99.90;;;;;;4842615;29;20512;-68
2022/08/07 00:08:10;;;;;;;4.95;4.45;;;11.90;99.90;;;;;;4843837;29;20054;-67
2022/08/07 00:10:37;;;;;;;5.28;4.45;;;11.90;99.90;;;;;;4844702;29;20060;-68
2022/08/07 00:13:04;;;;;;;6.28;4.07;;;11.90;99.90;;;;;;4835080;29;20054;-66
2022/08/07 00:15:31;;;;;;;5.35;4.57;;;11.80;99.90;;;;;;4844637;29;20069;-67
2022/08/07 00:17:57;;;;;;;4.93;4.47;;;11.80;99.90;;;;;;4843411;29;20531;-68
2022/08/07 00:20:23;;;;;;;5.55;4.75;;;11.80;99.90;;;;;;4843295;29;20144;-67
2022/08/07 00:22:49;;;;;;;5.43;4.93;;;11.80;99.90;;;;;;4841788;29;20105;-67
2022/08/07 00:25:15;;;;;;;7.28;4.70;;;11.70;99.90;;;;;;4836974;29;20050;-67
2022/08/07 00:27:41;;;;;;;6.50;4.75;;;11.70;99.90;;;;;;4842084;29;20050;-67
2022/08/07 00:30:07;;;;;;;4.97;4.32;;;11.70;99.90;;;;;;4842128;29;20053;-66
2022/08/07 00:32:32;;;;;;;5.30;4.78;;;11.60;99.90;;;;;;4841726;29;20054;-67
2022/08/07 00:34:58;;;;;;;6.32;4.07;;;11.60;99.90;;;;;;4843287;29;20046;-67
2022/08/07 00:37:25;;;;;;;5.90;4.32;;;11.60;99.90;;;;;;4850647;29;20474;-68
2022/08/07 00:39:53;;;;;;;4.88;4.40;;;11.60;99.90;;;;;;4827011;29;20085;-67
2022/08/07 00:42:20;;;;;;;5.25;4.47;;;11.60;99.90;;;;;;4857560;29;20054;-67
2022/08/07 00:44:45;;;;;;;5.20;4.38;;;11.60;99.90;;;;;;4862251;29;20061;-66
2022/08/07 00:47:11;;;;;;;5.30;4.80;;;11.50;99.90;;;;;;4860838;29;20061;-67
2022/08/07 00:49:37;;;;;;;4.30;3.83;;;11.60;99.90;;;;;;4843628;29;20119;-67
2022/08/07 00:52:07;;;;;;;5.28;4.47;;;11.50;99.90;;;;;;4841831;29;20065;-67
2022/08/07 00:54:33;;;;;;;5.63;4.15;;;11.50;99.90;;;;;;4853289;29;20064;-68
2022/08/07 00:56:59;;;;;;;4.95;4.50;;;11.50;99.90;;;;;;4843718;29;20057;-67
2022/08/07 00:59:25;;;;;;;7.68;4.75;;;11.50;99.90;;;;;;4842109;29;20411;-68
2022/08/07 01:01:51;;;;;;;6.88;4.45;;;11.40;99.90;;;;;;4843333;29;20094;-67
2022/08/07 01:04:17;;;;;;;5.38;4.60;;;11.50;99.90;;;;;;4843669;29;20046;-67
2022/08/07 01:06:43;;;;;;;4.53;4.13;;;11.50;99.90;;;;;;4842890;29;20061;-67
2022/08/07 01:09:09;;;;;;;6.13;4.50;;;11.50;99.90;;;;;;4842709;29;20133;-67
2022/08/07 01:11:36;;;;;;;7.65;4.88;;;11.50;99.90;;;;;;4841658;29;20100;-67
2022/08/07 01:14:02;;;;;;;6.85;5.18;;;11.50;99.90;;;;;;4842934;29;20054;-67
2022/08/07 01:16:28;;;;;;;5.15;4.65;;;11.40;99.90;;;;;;4826953;29;20122;-68
2022/08/07 01:18:54;;;;;;;6.10;4.75;;;11.50;99.90;;;;;;4842866;29;20089;-67
2022/08/07 01:21:23;;;;;;;6.53;4.97;;;11.40;99.90;;;;;;4837004;29;20066;-67
2022/08/07 01:23:50;;;;;;;5.97;4.40;;;11.40;99.90;;;;;;4841874;29;20503;-68
2022/08/07 01:26:19;;;;;;;5.47;4.90;;;11.40;99.90;;;;;;4836735;29;20511;-68
2022/08/07 01:28:47;;;;;;;5.65;4.97;;;11.40;99.90;;;;;;4836610;29;20129;-67
2022/08/07 01:31:18;;;;;;;5.53;5.03;;;11.40;99.90;;;;;;4833322;29;20129;-67
2022/08/07 01:33:45;;;;;;;6.07;4.90;;;11.40;99.90;;;;;;4842383;29;20049;-67
2022/08/07 01:36:10;;;;;;;5.70;4.70;;;11.50;99.90;;;;;;4825284;29;20065;-67
2022/08/07 01:38:38;;;;;;;7.93;5.30;;;11.50;99.90;;;;;;4828386;29;20380;-67
2022/08/07 01:41:05;;;;;;;6.70;5.43;;;11.60;99.90;;;;;;4841684;29;20129;-66
2022/08/07 01:43:32;;;;;;;6.97;5.25;;;11.60;99.90;;;;;;4857111;29;20088;-67
2022/08/07 01:45:58;;;;;;;5.25;4.75;;;11.70;99.90;;;;;;4854389;29;20137;-67
2022/08/07 01:48:25;;;;;;;5.97;5.03;;;11.70;99.90;;;;;;4825177;29;20128;-67
2022/08/07 01:51:00;;;;;;;6.13;5.32;;;11.80;99.90;;;;;;4825833;29;20519;-67
2022/08/07 01:53:29;;;;;;;6.93;5.45;;;11.90;99.90;;;;;;4833101;29;20046;-67
2022/08/07 01:56:08;;;;;;;5.93;5.25;;;11.90;99.90;;;;;;4841635;29;20049;-67
2022/08/07 01:58:38;;;;;;;6.25;4.88;;;11.90;99.90;;;;;;4842290;29;20377;-67
2022/08/07 02:01:10;;;;;;;5.40;4.72;;;12.00;99.90;;;;;;4842505;29;20061;-68
2022/08/07 02:03:44;;;;;;;7.97;4.90;;;12.00;99.90;;;;;;4833356;29;20066;-67
2022/08/07 02:06:14;;;;;;;4.97;4.25;;;12.10;99.90;;;;;;4842121;29;20058;-66
2022/08/07 02:08:42;;;;;;;5.13;4.32;;;12.10;99.90;;;;;;4834387;29;20145;-67
2022/08/07 02:11:09;;;;;;;5.57;4.90;;;12.10;99.90;;;;;;4826568;29;20054;-67
2022/08/07 02:13:36;;;;;;;5.80;4.90;;;12.10;99.90;;;;;;4841209;29;20500;-66
2022/08/07 02:16:04;;;;;;;6.13;4.95;;;12.10;99.90;;;;;;4842493;29;20112;-67
2022/08/07 02:18:33;;;;;;;5.38;4.80;;;12.00;99.90;;;;;;4832344;29;20403;-67
2022/08/07 02:21:01;;;;;;;5.20;4.38;;;12.00;99.90;;;;;;4839718;29;20068;-67
2022/08/07 02:23:29;;;;;;;7.18;5.40;;;12.00;99.90;;;;;;4834983;29;20129;-67
2022/08/07 02:25:57;;;;;;;6.72;4.95;;;11.90;99.90;;;;;;4839873;29;20062;-67
2022/08/07 02:28:27;;;;;;;6.10;5.07;;;11.90;99.90;;;;;;4839475;29;20094;-67
2022/08/07 02:30:53;;;;;;;7.45;5.60;;;12.00;99.90;;;;;;4826990;29;20054;-67
2022/08/07 02:33:21;;;;;;;5.32;4.70;;;11.90;99.90;;;;;;4841832;29;20093;-67
2022/08/07 02:35:48;;;;;;;7.63;5.20;;;11.90;99.90;;;;;;4840857;29;20360;-67
2022/08/07 02:38:16;;;;;;;7.28;5.53;;;11.90;99.90;;;;;;4841500;29;20097;-67
2022/08/07 02:40:43;;;;;;;6.35;5.43;;;11.80;99.90;;;;;;4841481;29;20101;-67
2022/08/07 02:43:09;;;;;;;6.00;4.90;;;11.80;99.90;;;;;;4841430;29;20475;-67
2022/08/07 02:45:39;;;;;;;5.40;4.88;;;11.80;99.90;;;;;;4842437;29;20426;-66
2022/08/07 02:48:04;;;;;;;6.75;5.30;;;11.80;99.90;;;;;;4841251;29;20058;-67
2022/08/07 02:50:33;;;;;;;6.80;4.80;;;11.70;99.90;;;;;;4825616;29;20142;-67
2022/08/07 02:53:04;;;;;;;6.68;5.15;;;11.80;99.90;;;;;;4839886;29;20407;-67
2022/08/07 02:55:32;;;;;;;10.20;5.30;;;11.80;99.90;;;;;;4841425;29;20057;-67
2022/08/07 02:58:03;;;;;;;7.35;5.72;;;11.60;99.90;;;;;;4842408;29;20295;-67
2022/08/07 03:00:31;;;;;;;6.55;5.60;;;11.60;99.90;;;;;;4862194;29;20522;-67
2022/08/07 03:02:58;;;;;;;5.85;5.00;;;11.60;99.90;;;;;;4844717;29;20448;-67
2022/08/07 03:05:24;;;;;;;6.95;5.50;;;11.60;99.90;;;;;;4844794;29;20057;-67
2022/08/07 03:07:50;;;;;;;7.20;5.50;;;11.70;99.90;;;;;;4845174;29;20058;-67
2022/08/07 03:10:16;;;;;;;8.27;5.30;;;11.70;99.90;;;;;;4860621;29;20052;-67
2022/08/07 03:12:44;;;;;;;6.70;4.85;;;11.70;99.90;;;;;;4847127;29;20156;-67
2022/08/07 03:15:11;;;;;;;8.05;4.95;;;11.70;99.90;;;;;;4847766;29;20058;-67
2022/08/07 03:17:37;;;;;;;6.90;5.57;;;11.70;99.90;;;;;;4847303;29;20457;-67
2022/08/07 03:20:05;;;;;;;5.35;4.65;;;11.60;99.90;;;;;;4847441;29;20185;-67
2022/08/07 03:22:31;;;;;;;6.20;4.97;;;11.50;99.90;;;;;;4846752;29;20067;-66
2022/08/07 03:24:58;;;;;;;8.18;5.35;;;11.50;99.90;;;;;;4845930;29;20100;-67
2022/08/07 03:27:25;;;;;;;6.82;5.10;;;11.50;99.90;;;;;;4860652;29;20053;-67
2022/08/07 03:29:51;;;;;;;5.82;4.80;;;11.40;99.90;;;;;;4845595;29;20372;-67
2022/08/07 03:32:24;;;;;;;6.47;4.80;;;11.40;99.90;;;;;;4817319;29;20045;-67
2022/08/07 03:34:53;;;;;;;5.60;4.90;;;11.30;99.90;;;;;;4863139;29;20061;-67
2022/08/07 03:37:21;;;;;;;6.05;4.75;;;11.30;99.90;;;;;;4845015;29;20054;-67
2022/08/07 03:39:47;;;;;;;6.93;4.82;;;11.20;99.90;;;;;;4845904;29;20534;-67
2022/08/07 03:42:16;;;;;;;6.57;4.78;;;11.20;99.90;;;;;;4862708;29;20097;-67
2022/08/07 03:45:33;;;;;;;6.10;5.10;;;11.20;99.90;;;;;;4846369;29;20057;-67
2022/08/07 03:47:59;;;;;;;4.95;4.40;;;11.20;99.90;;;;;;4815448;29;20061;-67
2022/08/07 03:50:52;;;;;;;5.85;4.80;;;11.10;99.90;;;;;;4846757;29;20451;-67
2022/08/07 03:53:18;;;;;;;;;;;11.10;99.90;;;;;;4863073;29;20057;-67
2022/08/07 03:55:44;;;;;;;4.78;4.15;;;10.70;99.90;;;;;;4861269;29;19980;-67
2022/08/07 03:58:13;;;;;;;6.07;4.78;;;11.00;99.90;;;;;;4844919;29;20053;-67
2022/08/07 04:00:47;;;;;;;5.80;4.50;;;11.00;99.90;;;;;;4845308;29;20113;-67
2022/08/07 04:06:55;;;;;;;6.75;5.07;;;10.90;99.90;;;;;;4862508;29;20068;-67
2022/08/07 04:09:21;;;;;;;6.63;5.10;;;10.90;99.90;;;;;;4861902;29;20053;-67
2022/08/07 04:11:49;;;;;;;5.72;4.75;;;10.90;99.90;;;;;;4860955;29;20138;-67
2022/08/07 04:14:14;;;;;;;4.90;4.47;;;10.90;99.90;;;;;;4861435;29;20045;-67
2022/08/07 04:16:40;;;;;;;6.05;4.97;;;10.90;99.90;;;;;;4862769;29;20053;-67
2022/08/07 04:19:07;;;;;;;6.22;5.25;;;10.80;99.90;;;;;;4845926;29;20080;-67
2022/08/07 04:21:33;;;;;;;7.90;5.22;;;10.80;99.90;;;;;;4861592;29;20329;-67
2022/08/07 04:23:59;;;;;;;7.03;5.00;;;10.80;99.90;;;;;;4862007;29;20199;-67
2022/08/07 04:26:25;;;;;;;6.38;4.97;;;10.80;99.90;;;;;;4843309;29;20139;-67
2022/08/07 04:28:50;;;;;;;7.03;4.88;;;10.80;99.90;;;;;;4861672;29;20269;-66
2022/08/07 04:31:16;;;;;;;8.13;4.68;;;10.80;99.90;;;;;;4845658;29;20137;-67
2022/08/07 04:33:44;;;;;;;5.70;4.88;;;10.80;99.90;;;;;;4862166;29;20068;-67
2022/08/07 04:36:09;;;;;;;6.85;5.07;;;10.80;99.90;;;;;;4844187;29;20125;-67
2022/08/07 04:38:36;;;;;;;6.80;5.05;;;10.90;99.90;;;;;;4880300;29;20092;-67
2022/08/07 04:41:02;;;;;;;7.47;5.68;;;10.90;99.90;;;;;;4875228;29;20049;-67
2022/08/07 04:43:30;;;;;;;6.43;5.32;;;11.00;99.90;;;;;;4845761;29;20058;-67
2022/08/07 04:46:22;;;;;;;6.50;5.03;;;11.10;99.90;;;;;;4862298;29;20076;-67
2022/08/07 04:49:04;;;;;;;7.22;6.05;;;11.10;99.90;;;;;;4862497;29;20061;-66
2022/08/07 04:51:36;;;;;;;;;;;11.10;99.90;;;;;;4862783;29;20121;-67
2022/08/07 04:54:32;;;;;;;6.20;5.32;;;11.10;99.90;;;;;;4834307;29;19955;-67
2022/08/07 04:57:15;;;;;;;8.70;5.95;;;11.10;99.90;;;;;;4843723;29;20061;-66
2022/08/07 04:59:52;;;;;;;8.13;6.03;;;11.20;99.90;;;;;;4843848;29;20054;-67
2022/08/07 05:02:43;;;;;;;6.88;5.35;;;11.20;99.90;;;;;;4843686;29;20062;-67
2022/08/07 05:05:16;;;;;;;7.68;5.93;;;11.30;99.90;;;;;;4843736;29;20294;-67
2022/08/07 05:07:49;;;;;;;8.00;5.68;;;11.40;99.90;;;;;;4843310;29;20058;-67
2022/08/07 05:10:31;;;;;;;7.95;5.90;;;11.40;99.90;;;;;;4853624;29;20057;-68
2022/08/07 05:13:08;;;;;;;8.80;6.05;;;11.50;99.90;;;;;;4844407;29;20480;-67
2022/08/07 05:15:40;;;;;;;8.85;6.35;;;11.50;99.90;;;;;;4844199;29;20113;-67
2022/08/07 05:18:21;;;;;;;8.45;5.88;;;11.50;99.90;;;;;;4861726;29;20438;-67
2022/08/07 05:20:50;;;;;;;8.38;6.03;;;11.60;99.90;;;;;;4843580;29;20061;-67
2022/08/07 05:23:19;;;;;;;7.97;6.32;;;11.70;99.90;;;;;;4858843;29;20140;-67
2022/08/07 05:25:47;;;;;;;9.85;6.38;;;11.70;99.90;;;;;;4844384;29;20086;-67
2022/08/07 05:28:14;;;;;;;9.63;6.18;;;11.70;99.90;;;;;;4844347;29;20057;-67
2022/08/07 05:30:41;;;;;;;9.65;6.93;;;11.80;99.90;;;;;;4844196;29;20059;-67
2022/08/07 05:33:08;;;;;;;8.02;6.35;;;11.90;99.90;;;;;;4860686;29;20049;-67
2022/08/07 05:35:35;;;;;;;8.82;6.68;;;11.90;99.90;;;;;;4843687;29;20059;-67
2022/08/07 05:38:02;;;;;;;11.20;7.20;;;12.10;99.90;;;;;;4859784;29;20379;-67
2022/08/07 05:40:29;;;;;;;7.95;6.57;;;12.20;99.90;;;;;;4841678;29;20061;-67
2022/08/07 05:42:57;;;;;;;9.95;7.47;;;12.30;99.90;;;;;;4836607;29;20068;-66
2022/08/07 05:45:24;;;;;;;9.73;7.68;;;12.50;99.90;;;;;;4854920;29;20330;-67
2022/08/07 05:47:51;;;;;;;8.82;7.03;;;12.60;99.90;;;;;;4839187;29;20136;-67
2022/08/07 05:50:18;;;;;;;9.98;7.45;;;12.80;99.90;;;;;;4859297;29;20067;-66
2022/08/07 05:52:43;;;;;;;9.18;7.18;;;13.70;99.90;;;;;;4854601;29;20053;-66
2022/08/07 05:55:09;;;;;;;8.73;6.85;;;14.80;99.90;;;;;;4839687;29;20135;-67
2022/08/07 05:57:37;;;;;;;8.63;7.15;;;16.00;99.90;;;;;;4858973;29;20054;-67
2022/08/07 06:00:05;;;;;;;8.55;6.75;;;17.20;99.90;;;;;;4843185;29;20484;-67
2022/08/07 06:02:34;;;;;;;9.80;8.43;;;18.10;99.90;;;;;;4826486;29;20050;-67
2022/08/07 06:05:07;;;;;;;10.23;8.05;;;18.80;99.90;;;;;;4860178;29;20069;-67
2022/08/07 06:07:34;;;;;;;8.43;7.32;;;19.50;99.90;;;;;;4859097;29;20053;-67
2022/08/07 06:10:00;;;;;;;8.85;7.25;;;20.10;99.90;;;;;;4860140;29;20164;-66
2022/08/07 06:12:27;;;;;;;10.60;8.15;;;20.50;99.90;;;;;;4860759;29;20092;-66
2022/08/07 06:14:53;;;;;;;10.00;7.95;;;20.90;99.90;;;;;;4860076;29;20547;-66
2022/08/07 06:17:19;;;;;;;10.38;8.25;;;21.40;99.90;;;;;;4860109;29;20065;-66
2022/08/07 06:19:46;;;;;;;9.77;7.68;;;21.60;99.90;;;;;;4860013;29;20062;-66
2022/08/07 06:22:13;;;;;;;10.02;8.23;;;21.70;99.90;;;;;;4843747;29;20054;-66
2022/08/07 06:24:39;;;;;;;12.05;8.20;;;21.50;99.90;;;;;;4859438;29;20423;-67
2022/08/07 06:27:05;;;;;;;9.77;8.77;;;20.60;99.90;;;;;;4859270;29;20065;-66
2022/08/07 06:29:32;;;;;;;9.30;8.13;;;19.80;99.90;;;;;;4842859;29;20061;-66
2022/08/07 06:32:00;;;;;;;11.27;8.80;;;19.20;99.90;;;;;;4859507;29;20064;-66
2022/08/07 06:34:27;;;;;;;10.32;9.23;;;18.70;99.90;;;;;;4843132;29;20057;-66
2022/08/07 06:36:53;;;;;;;11.57;9.55;;;18.40;99.90;;;;;;4859344;29;20049;-66
2022/08/07 06:39:22;;;;;;;12.13;9.57;;;18.10;99.90;;;;;;4860287;29;20079;-66
2022/08/07 06:42:18;;;;;;;11.32;9.43;;;17.90;99.90;;;;;;4855777;29;20056;-67
2022/08/07 06:44:53;;;;;;;11.93;9.80;;;17.70;99.90;;;;;;4817109;29;20057;-67
2022/08/07 06:47:19;;;;;;;10.68;9.40;;;17.60;99.90;;;;;;4840773;29;20065;-67
2022/08/07 06:49:45;;;;;;;11.63;9.85;;;17.60;99.90;;;;;;4840927;29;20491;-66
2022/08/07 06:52:13;;;;;;;9.93;8.30;;;17.60;99.90;;;;;;4842572;29;20110;-67
2022/08/07 06:54:40;;;;;;;9.85;8.75;;;17.70;99.90;;;;;;4860327;29;20106;-66
2022/08/07 06:57:08;;;;;;;13.00;9.10;;;17.70;99.90;;;;;;4860287;29;20144;-67
2022/08/07 07:02:36;;;;;;;9.23;7.35;;;17.70;99.90;;;;;;4843391;29;20487;-67
2022/08/07 07:05:02;;;;;;;8.45;6.93;;;17.80;99.90;;;;;;4861100;29;20054;-67
2022/08/07 07:07:31;;;;;;;10.98;7.07;;;17.90;99.90;;;;;;4859361;29;20046;-67
2022/08/07 07:09:56;;;;;;;13.05;7.88;;;18.00;99.90;;;;;;4842700;29;20053;-67
2022/08/07 07:12:39;;;;;;;7.95;6.10;;;18.10;99.90;;;;;;4859696;29;20102;-67
2022/08/07 07:15:29;;;;;;;6.65;6.03;;;18.20;99.90;;;;;;4828197;29;20038;-67
2022/08/07 07:18:15;;;;;;;6.05;5.00;;;18.30;99.90;;;;;;4859358;29;20410;-67
2022/08/07 07:20:48;;;;;;;5.97;5.00;;;18.40;99.90;;;;;;4859480;29;20125;-68
2022/08/07 07:23:14;;;;;;;5.65;5.15;;;18.50;99.90;;;;;;4860095;29;20503;-67
2022/08/07 07:25:42;;;;;;;4.82;4.35;;;18.60;99.90;;;;;;4843719;29;20141;-67
2022/08/07 07:28:24;;;;;;;10.05;6.32;;;18.70;99.90;;;;;;4843670;29;20089;-67
2022/08/07 07:31:10;;;;;;;7.38;5.90;;;18.80;99.90;;;;;;4859833;29;20061;-67
2022/08/07 07:33:39;;;;;;;7.68;6.10;;;18.90;99.90;;;;;;4859948;29;20516;-67
2022/08/07 07:36:08;;;;;;;7.72;4.93;;;18.90;99.90;;;;;;4858841;29;20064;-67
2022/08/07 07:38:34;;;;;;;5.57;4.60;;;19.00;99.90;;;;;;4859898;29;20061;-66
2022/08/07 07:41:04;;;;;;;5.80;4.80;;;19.10;99.90;;;;;;4843352;29;20068;-67
2022/08/07 07:43:35;;;;;;;5.75;5.15;;;19.20;99.90;;;;;;4844371;29;20120;-67
2022/08/07 07:46:01;;;;;;;7.72;5.00;;;19.30;99.90;;;;;;4844298;29;20464;-66
2022/08/07 07:48:28;;;;;;;6.80;4.85;;;19.40;99.90;;;;;;4863450;29;20050;-66
2022/08/07 07:50:54;;;;;;;6.13;4.18;;;19.60;99.90;;;;;;4862583;29;20125;-66
2022/08/07 07:53:22;;;;;;;6.00;4.40;;;19.60;99.90;;;;;;4863166;29;20061;-66
2022/08/07 07:55:52;;;;;;;5.65;4.47;;;19.60;99.90;;;;;;4846813;29;20057;-66
2022/08/07 07:58:19;;;;;;;5.07;4.18;;;19.70;99.90;;;;;;4845974;29;20054;-66
2022/08/07 08:00:46;;;;;;;5.10;4.53;;;19.80;99.90;;;;;;4864896;29;20050;-66
2022/08/07 08:03:14;;;;;;;4.05;3.65;;;19.90;99.90;;;;;;4865173;29;20081;-66
2022/08/07 08:05:43;;;;;;;3.47;2.95;;;20.00;99.90;;;;;;4864476;29;20057;-67
2022/08/07 08:08:11;;;;;;;4.78;2.80;;;20.10;99.90;;;;;;4865471;29;20068;-66
2022/08/07 08:10:38;;;;;;;3.03;2.75;;;20.10;99.90;;;;;;4863079;29;20094;-67
2022/08/07 08:13:06;;;;;;;4.10;3.50;;;20.20;99.90;;;;;;4846289;29;20487;-67
2022/08/07 08:15:37;;;;;;;4.13;3.10;;;20.20;99.90;;;;;;4846623;29;20064;-67
2022/08/07 08:18:07;;;;;;;4.55;3.00;;;20.20;99.90;;;;;;4831765;29;20060;-67
2022/08/07 08:20:34;;;;;;;5.22;3.13;;;20.30;99.90;;;;;;4846456;29;20094;-67
2022/08/07 08:28:38;;;;;;;2.45;2.25;;;20.60;99.90;;;;;;4845987;29;20053;-66
2022/08/07 08:31:06;;;;;;;3.53;2.13;;;20.70;99.90;;;;;;4844903;29;20053;-66
2022/08/07 08:33:33;;;;;;;2.20;2.00;;;20.80;99.90;;;;;;4863178;29;20065;-66
2022/08/07 08:36:12;;;;;;;2.95;2.00;;;20.70;99.90;;;;;;4859794;29;20088;-69
2022/08/07 08:38:42;;;;;;;2.70;2.30;;;20.80;99.90;;;;;;4844221;29;20056;-66
2022/08/07 08:41:23;;;;;;;3.03;2.50;;;20.90;99.90;;;;;;4850307;29;20500;-66
2022/08/07 08:44:22;;;;;;;2.67;2.10;;;20.90;98.70;;;;;;4859502;29;20136;-66
2022/08/07 08:47:07;;;;;;;2.97;2.65;;;21.00;97.40;;;;;;4855119;29;20128;-66
2022/08/07 08:59:31;;;;;;;4.00;2.92;;;21.20;99.90;;;;;;4860285;29;20053;-66
2022/08/07 09:02:35;;;;;;;6.97;3.70;;;21.10;99.90;;;;;;4830486;29;20506;-67
2022/08/07 09:05:27;;;;;;;3.70;2.80;;;21.20;99.20;;;;;;4859566;29;20809;-67
2022/08/07 09:08:32;;;;;;;3.88;2.78;;;21.10;96.20;;;;;;4860691;29;20072;-67
2022/08/07 09:11:30;;;;;;;4.28;2.85;;;20.80;93.90;;;;;;4861095;29;20395;-66
2022/08/07 09:14:23;;;;;;;5.10;3.22;;;20.80;95.50;;;;;;4858581;29;20084;-66
2022/08/07 09:17:21;;;;;;;3.60;2.88;;;20.90;96.90;;;;;;4856583;29;20049;-66
2022/08/07 09:20:17;;;;;;;2.95;2.75;;;20.90;93.90;;;;;;4851623;29;20064;-67
2022/08/07 09:22:52;;;;;;;3.35;2.88;;;21.10;95.80;;;;;;4861391;29;20209;-67
2022/08/07 09:25:25;;;;;;;3.08;2.75;;;21.20;95.10;;;;;;4860510;29;20061;-66
2022/08/07 09:28:08;;;;;;;5.03;3.50;;;21.30;93.20;;;;;;4861072;29;20045;-66
2022/08/07 09:34:29;;;;;;;3.58;2.67;;;21.30;93.10;;;;;;4843944;29;20057;-66
2022/08/07 09:37:48;;;;;;;2.60;2.40;;;21.20;87.60;;;;;;4843750;29;20054;-67
2022/08/07 09:40:23;;;;;;;3.22;2.70;;;21.20;88.40;;;;;;4804348;29;20074;-66
2022/08/07 09:43:04;;;;;;;2.75;2.55;;;21.30;91.00;;;;;;4811945;29;20640;-67
2022/08/07 09:45:38;;;;;;;3.63;2.40;;;21.30;91.10;;;;;;4840463;29;20073;-67
2022/08/07 09:48:17;;;;;;;3.95;2.97;;;21.50;91.00;;;;;;4826515;29;20090;-67
2022/08/07 09:51:08;;;;;;;3.90;2.70;;;21.60;93.90;;;;;;4847229;29;20499;-67
2022/08/07 09:53:41;;;;;;;3.97;2.85;;;21.80;84.60;;;;;;4856163;29;20053;-67
2022/08/07 09:56:29;;;;;;;3.15;2.50;;;21.90;92.60;;;;;;4855923;29;20049;-67
2022/08/07 09:59:08;;;;;;;3.20;2.70;;;22.10;91.50;;;;;;4857681;29;20140;-67
2022/08/07 10:01:53;;;;;;;2.60;2.40;;;22.30;78.50;;;;;;4857207;29;20057;-67
2022/08/07 10:04:56;;;;;;;2.38;1.90;;;22.20;79.30;;;;;;4858003;29;20507;-68
2022/08/07 10:07:40;;;;;;;;;;;22.30;75.80;;;;;;4843100;29;20065;-67
2022/08/07 10:10:35;;;;;;;2.28;2.00;;;22.40;69.80;;;;;;4842038;29;19928;-68
2022/08/07 10:13:30;;;;;;;2.10;1.90;;;22.50;71.70;;;;;;4859980;29;20052;-67
2022/08/07 10:16:39;;;;;;;2.60;2.03;;;22.60;74.50;;;;;;4860452;29;20118;-69
2022/08/07 10:19:34;;;;;;;2.40;2.00;;;22.70;76.20;;;;;;4856660;29;20049;-67
2022/08/07 10:22:11;;;;;;;3.30;2.25;;;22.60;71.20;;;;;;4840923;29;20092;-67
2022/08/07 10:25:13;;;;;;;3.65;2.28;;;22.50;74.00;;;;;;4839962;29;20511;-68
2022/08/07 10:27:57;;;;;;;;;;;22.40;71.20;;;;;;4858817;29;20217;-67
2022/08/07 10:30:35;;;;;;;2.67;2.03;;;22.30;69.90;;;;;;4859148;29;20023;-67
2022/08/07 10:33:48;;;;;;;2.53;2.30;;;22.40;76.80;;;;;;4842130;29;20494;-67
2022/08/07 10:36:33;;;;;;;2.85;2.13;;;22.60;74.80;;;;;;4850577;29;20093;-68
2022/08/07 10:39:23;;;;;;;2.20;2.00;;;22.50;75.00;;;;;;4855882;29;20048;-68
2022/08/07 10:42:12;;;;;;;2.00;1.83;;;22.40;72.90;;;;;;4858325;29;20041;-67
2022/08/07 10:44:42;;;;;;;2.80;1.73;;;22.40;71.60;;;;;;4840627;29;20057;-68
2022/08/07 10:47:10;;;;;;;2.30;2.00;;;22.50;72.90;;;;;;4859559;29;20113;-68
2022/08/07 10:49:47;;;;;;;4.15;1.90;;;22.60;71.20;;;;;;4853835;29;20038;-67
2022/08/07 10:52:38;;;;;;;2.63;1.85;;;22.50;69.30;;;;;;4859884;29;20037;-67
2022/08/07 10:55:17;;;;;;;2.15;1.92;;;22.60;69.30;;;;;;4858482;29;20053;-68
2022/08/07 10:58:24;;;;;;;3.72;1.70;;;22.60;69.50;;;;;;4859935;29;20049;-67
2022/08/07 11:01:39;;;;;;;2.28;1.70;;;22.60;68.90;;;;;;4855782;29;20495;-68
2022/08/07 11:04:16;;;;;;;1.90;1.70;;;22.70;70.80;;;;;;4844240;29;20045;-68
2022/08/07 11:07:18;;;;;;;2.83;2.00;;;22.80;72.40;;;;;;4841038;29;20053;-67
2022/08/07 11:09:48;;;;;;;2.58;1.80;;;22.90;70.10;;;;;;4840204;29;20138;-67
2022/08/07 11:12:24;;;;;;;2.30;1.67;;;22.90;70.10;;;;;;4842753;29;20050;-67
2022/08/07 11:15:04;;;;;;;1.80;1.70;;;22.90;68.50;;;;;;4841165;29;20479;-67
2022/08/07 11:17:37;;;;;;;2.42;1.88;;;22.90;68.00;;;;;;4857757;29;20101;-68
2022/08/07 11:20:19;;;;;;;2.20;1.65;;;22.90;68.90;;;;;;4822365;29;20050;-68
2022/08/07 11:22:59;;;;;;;2.10;1.90;;;23.10;68.10;;;;;;4845712;29;20060;-68
2022/08/07 11:25:35;;;;;;;3.05;1.80;;;22.90;66.70;;;;;;4845819;29;20406;-68
2022/08/07 11:28:25;;;;;;;4.03;2.05;;;22.90;66.50;;;;;;4846088;29;20128;-68
2022/08/07 11:31:03;;;;;;;2.08;1.77;;;22.90;65.20;;;;;;4846191;29;20056;-68
2022/08/07 11:33:50;;;;;;;2.22;1.73;;;23.00;67.80;;;;;;4862129;29;20063;-67
2022/08/07 11:36:33;;;;;;;2.20;1.80;;;23.10;65.30;;;;;;4862428;29;20097;-67
2022/08/07 11:39:31;;;;;;;2.13;1.80;;;23.20;64.80;;;;;;4845170;29;20502;-67
2022/08/07 11:42:24;;;;;;;2.75;1.80;;;23.20;65.20;;;;;;4862246;29;20041;-67
2022/08/07 11:45:24;;;;;;;4.55;2.42;;;23.30;63.70;;;;;;4862672;29;20132;-68
2022/08/07 11:48:20;;;;;;;5.22;1.80;;;23.20;63.30;;;;;;4844300;29;20125;-68
2022/08/07 11:51:18;;;;;;;2.10;1.70;;;23.20;64.40;;;;;;4859727;29;20057;-67
2022/08/07 11:54:20;;;;;;;1.77;1.45;;;23.30;62.90;;;;;;4845162;29;20491;-68
2022/08/07 11:56:46;;;;;;;1.50;1.40;;;23.30;63.90;;;;;;4862146;29;20085;-67
2022/08/07 11:59:27;;;;;;;4.13;1.73;;;23.20;64.30;;;;;;4845298;29;20084;-67
2022/08/07 12:02:10;;;;;;;1.77;1.67;;;23.30;63.60;;;;;;4844426;29;20479;-68
2022/08/07 12:08:31;;;;;;;1.60;1.50;;;23.40;63.80;;;;;;4859869;29;20041;-67
2022/08/07 12:11:20;;;;;;;4.30;1.65;;;23.30;58.10;;;;;;4843727;29;20049;-68
2022/08/07 12:13:56;;;;;;;2.78;1.70;;;23.30;62.20;;;;;;4861503;29;20049;-67
2022/08/07 12:16:33;;;;;;;1.90;1.58;;;23.30;61.10;;;;;;4861815;29;20046;-68
2022/08/07 12:19:12;;;;;;;1.45;1.35;;;23.20;59.70;;;;;;4861887;29;20092;-67
2022/08/07 12:22:03;;;;;;;1.95;1.40;;;23.20;59.90;;;;;;4862212;29;20349;-68
2022/08/07 12:28:00;;;;;;;1.55;1.45;;;23.40;62.00;;;;;;4861652;29;20061;-68
2022/08/07 12:30:31;;;;;;;2.78;1.42;;;23.60;61.30;;;;;;4862193;29;20101;-68
2022/08/07 12:33:05;;;;;;;1.98;1.50;;;23.70;60.90;;;;;;4862072;29;20053;-68
2022/08/07 12:35:34;;;;;;;2.88;1.40;;;24.30;60.10;;;;;;4845920;29;20056;-68
2022/08/07 12:38:00;;;;;;;2.67;1.50;;;23.90;58.00;;;;;;4845385;29;20060;-66
2022/08/07 12:40:31;;;;;;;1.52;1.42;;;23.80;56.40;;;;;;4845145;29;20404;-66
2022/08/07 12:43:02;;;;;;;1.70;1.60;;;23.80;57.00;;;;;;4844138;29;20053;-67
2022/08/07 12:45:45;;;;;;;1.75;1.60;;;23.60;57.20;;;;;;4845416;29;20511;-66
2022/08/07 12:48:40;;;;;;;1.55;1.45;;;23.60;54.90;;;;;;4860296;29;20061;-66
2022/08/07 12:51:15;;;;;;;1.73;1.30;;;23.70;53.70;;;;;;4827270;29;20061;-67
2022/08/07 12:53:45;;;;;;;2.10;1.33;;;23.70;53.30;;;;;;4844782;29;20068;-67
2022/08/07 12:56:27;;;;;;;2.05;1.48;;;23.70;53.80;;;;;;4861209;29;20041;-67
2022/08/07 12:58:54;;;;;;;2.75;1.80;;;23.70;55.10;;;;;;4856413;29;20061;-67
2022/08/07 13:01:54;;;;;;;2.53;1.80;;;23.70;54.80;;;;;;4844207;29;20046;-66
2022/08/07 13:05:01;;;;;;;4.53;1.80;;;23.70;53.60;;;;;;4844623;29;20072;-67
2022/08/07 13:08:05;;;;;;;1.50;1.40;;;23.70;53.70;;;;;;4844504;29;20057;-67
2022/08/07 13:14:32;;;;;;;2.72;1.50;;;23.90;53.30;;;;;;4842749;29;20060;-67
2022/08/07 13:17:18;;;;;;;1.60;1.40;;;23.80;53.30;;;;;;4844108;29;20049;-67
2022/08/07 13:20:34;;;;;;;1.60;1.35;;;23.90;53.60;;;;;;4828659;29;20098;-67
2022/08/07 13:23:31;;;;;;;1.70;1.33;;;24.00;54.00;;;;;;4859064;29;20053;-66
2022/08/07 13:29:35;;;;;;;1.88;1.40;;;24.30;53.50;;;;;;4843838;29;20050;-67
2022/08/07 13:32:04;;;;;;;2.65;1.60;;;24.30;53.40;;;;;;4856363;29;20383;-67
2022/08/07 13:34:38;;;;;;;2.95;1.20;;;24.40;53.10;;;;;;4859383;29;20053;-66
2022/08/07 13:37:40;;;;;;;1.40;1.30;;;24.40;52.60;;;;;;4859649;29;20057;-67
2022/08/07 13:40:19;;;;;;;2.58;1.42;;;24.50;52.60;;;;;;4825503;29;20057;-66
2022/08/07 13:42:49;;;;;;;2.58;1.40;;;24.50;51.40;;;;;;4857431;29;20400;-66
2022/08/07 13:45:15;;;;;;;4.10;1.60;;;24.50;51.90;;;;;;4860094;29;20050;-66
2022/08/07 13:47:58;;;;;;;1.70;1.55;;;24.20;51.70;;;;;;4858327;29;20160;-66
2022/08/07 13:50:41;;;;;;;1.92;1.40;;;24.00;52.60;;;;;;4857582;29;20049;-66
2022/08/07 13:53:08;;;;;;;1.90;1.40;;;23.70;53.60;;;;;;4828389;29;20041;-66
2022/08/07 13:55:35;;;;;;;2.00;1.52;;;23.50;54.10;;;;;;4842701;29;20475;-66
2022/08/07 14:00:57;;;;;;;2.03;1.50;;;23.60;54.00;;;;;;4842795;29;20057;-66
2022/08/07 14:03:25;;;;;;;2.65;1.80;;;23.80;55.50;;;;;;4828796;29;20049;-67
2022/08/07 14:05:57;;;;;;;1.65;1.55;;;23.90;54.80;;;;;;4858720;29;20073;-67
2022/08/07 14:08:24;;;;;;;1.50;1.40;;;24.30;54.80;;;;;;4859542;29;20105;-67